Time;durP1;ratioP1;P1;durP2;ratioP2;P2;SDS_P1;SDS_P2;PMS_P1;PMS_P2;Temp;Humidity;BMP_temperature;BMP_pressure;BME280_temperature;BME280_humidity;BME280_pressure;Samples;Min_cycle;Max_cycle;Signal;HPM_P1;HPM_P2
2021/05/24 00:01:39;;;;;;;6.15;1.90;;;8.50;70.70;;;;;;4985013;28;20183;-71
2021/05/24 00:04:06;;;;;;;2.90;1.95;;;8.50;70.70;;;;;;4995344;28;20050;-71
2021/05/24 00:06:31;;;;;;;3.58;1.80;;;8.50;70.80;;;;;;5001356;28;20505;-70
2021/05/24 00:08:57;;;;;;;1.83;1.70;;;8.50;70.90;;;;;;5013179;28;20026;-71
2021/05/24 00:11:22;;;;;;;1.77;1.60;;;8.50;70.90;;;;;;5012528;28;20423;-72
2021/05/24 00:13:55;;;;;;;2.63;2.08;;;8.50;70.90;;;;;;5030880;28;20386;-70
2021/05/24 00:16:22;;;;;;;2.63;1.73;;;8.50;71.00;;;;;;5013363;28;20021;-70
2021/05/24 00:18:51;;;;;;;2.88;1.90;;;8.50;71.00;;;;;;5022933;28;20114;-71
2021/05/24 00:21:18;;;;;;;2.22;1.80;;;8.40;71.00;;;;;;5005463;28;20018;-72
2021/05/24 00:23:45;;;;;;;3.95;1.98;;;8.40;71.10;;;;;;5001757;28;20088;-72
2021/05/24 00:26:12;;;;;;;3.78;2.28;;;8.30;71.10;;;;;;5023057;28;20045;-72
2021/05/24 00:28:37;;;;;;;2.40;2.20;;;8.30;71.30;;;;;;5008420;28;20462;-72
2021/05/24 00:31:04;;;;;;;2.35;2.10;;;8.30;71.30;;;;;;5018049;28;20093;-72
2021/05/24 00:33:30;;;;;;;2.20;2.05;;;8.20;71.40;;;;;;5006180;28;20040;-71
2021/05/24 00:35:55;;;;;;;2.25;2.05;;;8.20;71.60;;;;;;5019411;28;20021;-71
2021/05/24 00:38:21;;;;;;;6.03;2.13;;;8.10;71.60;;;;;;5024170;28;20049;-72
2021/05/24 00:40:47;;;;;;;4.40;1.90;;;8.10;71.80;;;;;;5031017;28;20026;-72
2021/05/24 00:43:13;;;;;;;2.75;1.88;;;8.00;71.80;;;;;;5030075;28;20029;-72
2021/05/24 00:45:39;;;;;;;2.28;2.00;;;8.00;72.00;;;;;;5029273;28;20489;-72
2021/05/24 00:48:05;;;;;;;1.95;1.83;;;7.90;72.10;;;;;;5005029;28;20030;-72
2021/05/24 00:50:31;;;;;;;3.28;2.10;;;7.90;72.30;;;;;;5011736;28;20378;-72
2021/05/24 00:52:57;;;;;;;3.78;2.30;;;7.90;72.20;;;;;;5021876;28;20034;-72
2021/05/24 00:55:22;;;;;;;2.70;2.15;;;7.90;72.80;;;;;;5016721;28;20021;-72
2021/05/24 00:57:49;;;;;;;4.22;2.30;;;7.90;72.40;;;;;;5020715;28;20490;-70
2021/05/24 01:00:34;;;;;;;2.63;2.30;;;7.90;72.30;;;;;;5026716;28;20028;-72
2021/05/24 01:03:00;;;;;;;2.47;2.13;;;7.80;72.50;;;;;;5012261;28;20541;-70
2021/05/24 01:05:26;;;;;;;2.13;1.77;;;7.80;72.50;;;;;;5000168;28;20045;-72
2021/05/24 01:07:52;;;;;;;3.22;2.00;;;7.70;72.60;;;;;;5016873;28;20060;-72
2021/05/24 01:10:19;;;;;;;2.20;2.00;;;7.80;72.80;;;;;;5018847;28;20080;-72
2021/05/24 01:12:45;;;;;;;2.85;1.80;;;7.80;72.70;;;;;;5016127;28;20018;-72
2021/05/24 01:15:11;;;;;;;3.03;2.03;;;7.80;72.70;;;;;;5029424;28;20659;-72
2021/05/24 01:17:37;;;;;;;2.95;1.80;;;7.70;72.60;;;;;;5028759;28;20114;-72
2021/05/24 01:20:04;;;;;;;2.83;2.20;;;7.70;72.70;;;;;;5021647;28;20114;-72
2021/05/24 01:22:32;;;;;;;3.05;2.00;;;7.70;72.70;;;;;;5025068;28;20025;-72
2021/05/24 01:24:58;;;;;;;3.65;2.15;;;7.60;72.80;;;;;;5032313;28;20381;-72
2021/05/24 01:27:24;;;;;;;3.25;2.20;;;7.60;72.90;;;;;;5027565;28;20037;-72
2021/05/24 01:29:49;;;;;;;3.28;1.90;;;7.60;73.00;;;;;;5027146;28;20034;-72
2021/05/24 01:32:15;;;;;;;5.10;2.40;;;7.60;72.80;;;;;;5029252;28;20025;-71
2021/05/24 01:34:41;;;;;;;2.50;2.15;;;7.50;72.90;;;;;;5022438;28;20076;-72
2021/05/24 01:37:08;;;;;;;4.45;2.20;;;7.50;73.20;;;;;;5023700;28;20110;-73
2021/05/24 01:39:33;;;;;;;2.75;1.90;;;7.50;73.70;;;;;;5032914;28;20025;-70
2021/05/24 01:41:59;;;;;;;2.45;2.10;;;7.50;73.20;;;;;;5030368;28;20468;-72
2021/05/24 01:44:30;;;;;;;3.33;1.92;;;7.50;73.30;;;;;;5004723;28;20034;-72
2021/05/24 01:46:56;;;;;;;2.38;1.88;;;7.40;73.50;;;;;;5030049;28;20033;-72
2021/05/24 01:49:21;;;;;;;3.22;1.90;;;7.40;73.40;;;;;;5013198;28;20104;-71
2021/05/24 01:51:47;;;;;;;2.50;2.17;;;7.40;73.40;;;;;;5030572;28;21861;-72
2021/05/24 01:54:13;;;;;;;4.57;2.17;;;7.40;73.40;;;;;;5032175;28;20021;-71
2021/05/24 01:56:41;;;;;;;1.90;1.77;;;7.40;73.50;;;;;;5029610;28;20036;-72
2021/05/24 01:59:06;;;;;;;2.42;1.70;;;7.40;73.60;;;;;;5026494;28;20063;-72
2021/05/24 02:01:32;;;;;;;6.10;2.03;;;7.40;73.60;;;;;;5025085;28;20460;-72
2021/05/24 02:03:57;;;;;;;3.25;1.90;;;7.40;73.50;;;;;;5030390;28;20052;-71
2021/05/24 02:06:23;;;;;;;3.67;1.85;;;7.30;73.60;;;;;;5033536;28;20044;-72
2021/05/24 02:08:48;;;;;;;2.72;1.75;;;7.30;73.70;;;;;;5027954;28;20491;-71
2021/05/24 02:11:15;;;;;;;2.03;1.92;;;7.30;73.70;;;;;;5032268;28;20378;-71
2021/05/24 02:13:44;;;;;;;4.18;1.75;;;7.20;73.70;;;;;;5014781;28;20033;-71
2021/05/24 02:16:10;;;;;;;3.08;2.08;;;7.20;73.80;;;;;;5029262;28;20029;-71
2021/05/24 02:18:36;;;;;;;2.10;1.90;;;7.20;73.80;;;;;;5032256;28;20083;-72
2021/05/24 02:21:03;;;;;;;1.95;1.73;;;7.20;73.90;;;;;;5005867;28;20490;-72
2021/05/24 02:23:28;;;;;;;2.47;1.85;;;7.10;73.90;;;;;;5023941;28;20034;-72
2021/05/24 02:25:54;;;;;;;3.25;1.80;;;7.10;73.90;;;;;;5031378;28;20041;-72
2021/05/24 02:28:19;;;;;;;2.47;1.77;;;7.10;74.00;;;;;;5016930;28;20485;-72
2021/05/24 02:30:45;;;;;;;2.17;1.90;;;7.00;74.00;;;;;;5014521;28;20036;-71
2021/05/24 02:33:11;;;;;;;1.83;1.67;;;7.00;74.10;;;;;;5031574;28;20144;-72
2021/05/24 02:35:36;;;;;;;3.35;2.00;;;7.00;74.10;;;;;;5022237;28;20041;-72
2021/05/24 02:38:03;;;;;;;4.35;2.10;;;7.00;74.10;;;;;;5021291;28;20025;-72
2021/05/24 02:40:29;;;;;;;4.82;1.83;;;6.90;74.30;;;;;;5031800;28;20607;-72
2021/05/24 02:42:54;;;;;;;2.28;2.00;;;6.90;74.40;;;;;;5024278;28;20069;-71
2021/05/24 02:45:21;;;;;;;2.72;1.83;;;6.90;74.50;;;;;;5027717;28;20385;-71
2021/05/24 02:47:48;;;;;;;3.47;1.92;;;7.00;74.50;;;;;;5018405;28;20033;-72
2021/05/24 02:50:19;;;;;;;1.90;1.70;;;7.00;74.50;;;;;;5033384;28;20034;-70
2021/05/24 02:52:44;;;;;;;2.50;1.85;;;7.00;74.60;;;;;;5000651;28;20029;-71
2021/05/24 02:55:11;;;;;;;2.00;1.80;;;6.90;74.50;;;;;;5028939;28;20034;-71
2021/05/24 02:57:37;;;;;;;3.10;1.90;;;6.90;74.60;;;;;;5032926;28;20087;-71
2021/05/24 03:00:05;;;;;;;1.88;1.67;;;6.90;74.70;;;;;;5027473;28;20033;-72
2021/05/24 03:02:31;;;;;;;2.20;1.90;;;6.90;74.80;;;;;;5023238;28;20022;-72
2021/05/24 03:04:57;;;;;;;4.47;2.20;;;6.90;74.80;;;;;;5011732;28;20040;-72
2021/05/24 03:07:22;;;;;;;2.13;1.92;;;6.90;74.70;;;;;;5006826;28;20427;-71
2021/05/24 03:09:48;;;;;;;2.38;1.73;;;6.80;74.80;;;;;;5012435;28;20026;-71
2021/05/24 03:12:14;;;;;;;2.72;1.75;;;6.80;75.00;;;;;;5013075;28;20503;-72
2021/05/24 03:14:41;;;;;;;1.77;1.67;;;6.90;75.10;;;;;;5002140;28;20031;-72
2021/05/24 03:17:06;;;;;;;2.35;1.58;;;6.90;75.20;;;;;;4997565;28;20019;-70
2021/05/24 03:19:32;;;;;;;2.25;1.83;;;6.90;75.20;;;;;;5008936;28;20033;-72
2021/05/24 03:21:58;;;;;;;2.63;1.70;;;6.90;75.20;;;;;;5014756;28;20385;-72
2021/05/24 03:24:23;;;;;;;2.20;1.77;;;6.90;75.20;;;;;;4995323;28;20030;-72
2021/05/24 03:26:49;;;;;;;4.60;2.00;;;7.00;75.30;;;;;;5000456;28;20034;-72
2021/05/24 03:29:15;;;;;;;3.55;1.80;;;7.00;75.30;;;;;;5011384;28;20018;-71
2021/05/24 03:31:40;;;;;;;3.70;2.05;;;6.90;75.30;;;;;;5012236;28;20126;-71
2021/05/24 03:34:06;;;;;;;2.78;1.55;;;7.00;75.40;;;;;;5009975;28;20682;-72
2021/05/24 03:36:32;;;;;;;2.60;1.77;;;7.00;75.40;;;;;;5014463;28;20026;-72
2021/05/24 03:38:57;;;;;;;2.40;1.77;;;7.00;75.40;;;;;;5008555;28;20423;-71
2021/05/24 03:41:23;;;;;;;5.53;2.00;;;7.00;75.50;;;;;;5011453;28;20061;-71
2021/05/24 03:43:49;;;;;;;3.80;2.17;;;7.00;75.50;;;;;;5000847;28;20738;-70
2021/05/24 03:46:15;;;;;;;2.35;1.95;;;7.00;75.60;;;;;;5004179;28;20065;-72
2021/05/24 03:48:40;;;;;;;1.90;1.80;;;6.90;75.60;;;;;;5012149;28;20122;-71
2021/05/24 03:51:07;;;;;;;2.35;1.90;;;6.90;75.70;;;;;;5014799;28;20413;-71
2021/05/24 03:53:33;;;;;;;6.18;1.85;;;6.90;75.90;;;;;;5013350;28;20717;-72
2021/05/24 03:56:00;;;;;;;2.10;1.90;;;6.90;76.10;;;;;;5010304;28;20030;-72
2021/05/24 03:58:25;;;;;;;2.70;2.20;;;6.90;76.10;;;;;;5007189;28;20038;-70
2021/05/24 04:00:51;;;;;;;3.38;2.08;;;6.90;76.20;;;;;;5006549;28;20022;-74
2021/05/24 04:03:17;;;;;;;3.13;1.92;;;6.90;76.10;;;;;;5007728;28;20018;-71
2021/05/24 04:05:45;;;;;;;3.22;2.05;;;7.00;76.20;;;;;;5019294;23;20120;-72
2021/05/24 04:08:10;;;;;;;6.85;2.25;;;7.00;76.00;;;;;;5007287;28;20038;-73
2021/05/24 04:10:52;;;;;;;2.15;1.95;;;7.00;76.10;;;;;;5023149;28;20104;-73
2021/05/24 04:13:17;;;;;;;3.50;1.77;;;7.00;76.20;;;;;;5030869;28;20018;-73
2021/05/24 04:15:46;;;;;;;2.10;1.90;;;6.90;76.30;;;;;;5025799;28;20124;-72
2021/05/24 04:18:16;;;;;;;1.98;1.85;;;7.00;76.30;;;;;;5025669;28;20030;-72
2021/05/24 04:20:44;;;;;;;2.22;1.90;;;6.90;76.30;;;;;;5030385;28;20025;-72
2021/05/24 04:23:09;;;;;;;2.10;1.90;;;6.90;76.50;;;;;;5021366;28;20424;-72
2021/05/24 04:25:35;;;;;;;2.83;1.77;;;7.00;76.60;;;;;;5016444;28;20029;-71
2021/05/24 04:28:01;;;;;;;1.77;1.67;;;7.00;76.60;;;;;;5027021;28;20041;-72
2021/05/24 04:30:26;;;;;;;2.10;1.67;;;7.00;76.60;;;;;;5028605;28;20059;-72
2021/05/24 04:32:52;;;;;;;2.25;1.90;;;7.00;76.60;;;;;;5008211;28;20077;-71
2021/05/24 04:35:18;;;;;;;4.50;2.00;;;7.10;76.60;;;;;;4997731;28;20033;-72
2021/05/24 04:37:44;;;;;;;1.75;1.60;;;7.10;76.60;;;;;;5011579;28;20030;-72
2021/05/24 04:40:09;;;;;;;3.53;1.83;;;7.10;76.70;;;;;;5020342;28;20402;-73
2021/05/24 04:42:35;;;;;;;2.40;1.80;;;7.20;76.80;;;;;;5011423;28;20378;-72
2021/05/24 04:45:01;;;;;;;4.82;1.88;;;7.20;76.80;;;;;;4997286;28;20488;-72
2021/05/24 04:47:26;;;;;;;1.67;1.58;;;7.20;76.80;;;;;;5030508;28;20033;-72
2021/05/24 04:49:52;;;;;;;4.47;1.63;;;7.20;76.80;;;;;;5007944;28;20033;-72
2021/05/24 04:52:18;;;;;;;2.20;2.00;;;7.30;76.90;;;;;;5005851;28;20025;-72
2021/05/24 04:54:45;;;;;;;2.83;1.73;;;7.30;76.90;;;;;;5003379;28;20048;-72
2021/05/24 04:57:11;;;;;;;1.73;1.63;;;7.40;76.90;;;;;;5008874;28;20438;-72
2021/05/24 04:59:37;;;;;;;2.25;1.70;;;7.40;77.00;;;;;;5003955;28;20029;-72
2021/05/24 05:02:02;;;;;;;1.60;1.50;;;7.40;76.90;;;;;;5003843;28;20025;-72
2021/05/24 05:04:28;;;;;;;2.03;1.73;;;7.40;76.90;;;;;;5009181;28;20065;-72
2021/05/24 05:06:56;;;;;;;2.28;1.77;;;7.40;76.90;;;;;;5030330;28;20025;-72
2021/05/24 05:09:22;;;;;;;1.58;1.48;;;7.40;77.00;;;;;;5010026;28;20478;-72
2021/05/24 05:11:47;;;;;;;2.13;1.70;;;7.40;77.10;;;;;;5012431;28;20041;-72
2021/05/24 05:14:13;;;;;;;1.70;1.60;;;7.40;77.20;;;;;;5022116;28;20021;-72
2021/05/24 05:16:38;;;;;;;2.20;1.70;;;7.50;77.30;;;;;;5023762;28;20030;-72
2021/05/24 05:19:04;;;;;;;2.22;1.80;;;7.50;77.30;;;;;;5011332;28;20091;-72
2021/05/24 05:21:30;;;;;;;2.78;1.85;;;7.50;77.10;;;;;;5007898;28;20191;-72
2021/05/24 05:23:55;;;;;;;1.48;1.38;;;7.60;77.20;;;;;;5016449;28;20053;-72
2021/05/24 05:26:21;;;;;;;1.17;1.17;;;7.60;77.30;;;;;;4992430;28;20022;-71
2021/05/24 05:28:47;;;;;;;3.65;1.27;;;7.60;77.40;;;;;;5005721;28;20084;-72
2021/05/24 05:31:12;;;;;;;1.73;1.30;;;7.60;77.40;;;;;;5029209;28;20049;-71
2021/05/24 05:33:38;;;;;;;2.72;1.50;;;7.70;77.40;;;;;;5011136;28;20493;-72
2021/05/24 05:36:04;;;;;;;2.47;1.50;;;7.80;77.50;;;;;;5005963;28;20022;-72
2021/05/24 05:38:30;;;;;;;1.30;1.20;;;7.80;77.50;;;;;;5024027;28;20059;-71
2021/05/24 05:40:57;;;;;;;1.15;1.05;;;7.90;77.60;;;;;;5001113;28;20497;-71
2021/05/24 05:43:22;;;;;;;1.30;1.20;;;8.00;77.70;;;;;;5002550;28;20040;-71
2021/05/24 05:45:48;;;;;;;1.30;1.20;;;8.10;77.70;;;;;;5009275;28;20029;-71
2021/05/24 05:48:14;;;;;;;1.15;1.00;;;8.10;77.70;;;;;;5010020;28;20331;-72
2021/05/24 05:50:40;;;;;;;2.05;1.30;;;8.20;77.70;;;;;;5029018;28;20390;-72
2021/05/24 05:53:05;;;;;;;1.52;1.38;;;8.30;77.80;;;;;;4996628;28;20084;-71
2021/05/24 05:55:31;;;;;;;2.50;1.45;;;8.40;77.90;;;;;;5009959;28;20477;-72
2021/05/24 05:57:57;;;;;;;1.60;1.35;;;8.50;77.90;;;;;;5013300;28;20033;-72
2021/05/24 06:00:23;;;;;;;2.53;1.40;;;8.50;77.80;;;;;;5028017;28;20149;-72
2021/05/24 06:02:49;;;;;;;3.55;1.65;;;8.60;77.80;;;;;;5008899;28;20041;-72
2021/05/24 06:05:15;;;;;;;1.52;1.42;;;8.60;77.70;;;;;;4995786;28;20037;-72
2021/05/24 06:07:41;;;;;;;1.42;1.33;;;8.70;77.80;;;;;;5013874;28;20113;-72
2021/05/24 06:10:08;;;;;;;2.28;1.40;;;8.70;77.80;;;;;;5027148;28;20017;-72
2021/05/24 06:12:34;;;;;;;1.73;1.40;;;8.80;77.80;;;;;;5032853;28;20025;-72
2021/05/24 06:14:59;;;;;;;2.20;1.60;;;8.80;77.80;;;;;;5011922;28;20437;-72
2021/05/24 06:17:25;;;;;;;2.65;1.60;;;8.80;77.80;;;;;;5030647;28;20084;-72
2021/05/24 06:19:51;;;;;;;1.67;1.30;;;8.90;77.80;;;;;;5015195;28;20033;-72
2021/05/24 06:22:17;;;;;;;1.42;1.20;;;9.00;77.80;;;;;;5009291;28;20021;-72
2021/05/24 06:24:43;;;;;;;3.10;1.50;;;9.00;77.60;;;;;;5010605;28;20359;-72
2021/05/24 06:27:09;;;;;;;2.25;1.30;;;9.10;77.70;;;;;;5001088;28;20029;-72
2021/05/24 06:29:34;;;;;;;1.60;1.50;;;9.20;77.60;;;;;;5032355;28;20563;-72
2021/05/24 06:32:00;;;;;;;2.00;1.30;;;9.20;77.60;;;;;;5029199;28;20504;-72
2021/05/24 06:34:26;;;;;;;1.40;1.30;;;9.30;77.50;;;;;;5002913;28;20040;-72
2021/05/24 06:36:52;;;;;;;1.77;1.30;;;9.30;77.50;;;;;;5026450;28;20025;-72
2021/05/24 06:39:18;;;;;;;3.72;1.23;;;9.40;77.50;;;;;;5025347;28;20033;-72
2021/05/24 06:41:44;;;;;;;1.73;1.33;;;9.60;77.50;;;;;;5029839;28;20045;-72
2021/05/24 06:44:10;;;;;;;1.20;1.10;;;9.70;77.50;;;;;;5030635;28;20036;-72
2021/05/24 06:46:36;;;;;;;3.78;1.35;;;9.80;77.50;;;;;;5012252;28;20030;-72
2021/05/24 06:49:01;;;;;;;1.25;0.98;;;9.90;77.60;;;;;;5013238;28;20465;-72
2021/05/24 06:51:27;;;;;;;2.45;1.23;;;10.10;77.70;;;;;;5030604;28;20060;-72
2021/05/24 06:53:53;;;;;;;1.23;1.13;;;10.20;77.60;;;;;;5013362;28;20442;-72
2021/05/24 06:56:19;;;;;;;1.35;1.10;;;10.30;77.60;;;;;;5013146;28;20025;-72
2021/05/24 06:58:45;;;;;;;2.45;1.10;;;10.40;77.50;;;;;;5031006;28;20359;-72
2021/05/24 07:01:12;;;;;;;1.92;1.75;;;10.60;77.50;;;;;;5028948;28;20037;-72
2021/05/24 07:03:37;;;;;;;2.53;2.10;;;10.60;77.50;;;;;;5017676;28;20045;-72
2021/05/24 07:06:03;;;;;;;2.67;1.75;;;10.70;77.30;;;;;;5007047;28;20497;-73
2021/05/24 07:08:29;;;;;;;2.85;2.50;;;10.80;77.10;;;;;;5005739;28;20382;-72
2021/05/24 07:10:55;;;;;;;3.28;2.33;;;10.90;76.70;;;;;;5030568;28;20030;-72
2021/05/24 07:13:21;;;;;;;3.85;2.30;;;10.90;76.40;;;;;;5022024;28;20396;-72
2021/05/24 07:15:46;;;;;;;2.70;2.42;;;11.00;76.50;;;;;;5020332;28;20022;-72
2021/05/24 07:18:12;;;;;;;4.47;2.38;;;11.10;76.50;;;;;;5030087;28;20064;-72
2021/05/24 07:20:38;;;;;;;3.35;2.40;;;11.10;76.10;;;;;;5030856;28;20032;-72
2021/05/24 07:23:03;;;;;;;4.55;2.60;;;11.10;76.10;;;;;;5010010;28;20481;-72
2021/05/24 07:25:29;;;;;;;4.38;2.72;;;11.20;76.10;;;;;;5018858;28;20030;-72
2021/05/24 07:27:55;;;;;;;3.78;2.70;;;11.40;76.00;;;;;;5019362;28;20061;-72
2021/05/24 07:30:21;;;;;;;3.03;2.33;;;11.60;76.00;;;;;;5002141;28;20417;-72
2021/05/24 07:32:47;;;;;;;3.45;1.90;;;11.80;75.60;;;;;;5000408;28;20149;-73
2021/05/24 07:35:13;;;;;;;1.98;1.77;;;12.10;75.20;;;;;;5012257;28;20025;-72
2021/05/24 07:37:39;;;;;;;2.65;1.98;;;12.50;74.80;;;;;;5011359;28;20132;-72
2021/05/24 07:40:08;;;;;;;2.67;1.83;;;13.10;74.30;;;;;;5020721;28;20385;-72
2021/05/24 07:42:34;;;;;;;1.95;1.55;;;13.60;73.90;;;;;;5025319;28;20021;-72
2021/05/24 07:44:59;;;;;;;2.10;1.55;;;13.80;73.40;;;;;;5029715;28;20136;-72
2021/05/24 07:47:25;;;;;;;1.10;1.00;;;14.10;73.30;;;;;;5022651;28;20026;-72
2021/05/24 07:49:51;;;;;;;0.80;0.80;;;14.20;72.90;;;;;;5001397;28;20480;-73
2021/05/24 07:52:16;;;;;;;1.52;1.00;;;14.30;72.20;;;;;;5030729;28;20120;-72
2021/05/24 07:54:42;;;;;;;1.50;1.13;;;14.50;71.50;;;;;;5010770;28;20057;-72
2021/05/24 07:57:08;;;;;;;2.95;1.20;;;14.40;71.30;;;;;;5022995;28;20079;-71
2021/05/24 07:59:34;;;;;;;3.17;2.28;;;14.60;71.70;;;;;;5029705;28;20481;-71
2021/05/24 08:02:02;;;;;;;0.95;0.85;;;14.80;70.80;;;;;;5011095;28;20101;-71
2021/05/24 08:04:28;;;;;;;1.83;1.10;;;14.80;70.70;;;;;;5022654;28;20048;-71
2021/05/24 08:06:53;;;;;;;1.70;0.75;;;15.00;70.30;;;;;;5030330;28;20524;-70
2021/05/24 08:09:19;;;;;;;0.85;0.70;;;15.10;69.50;;;;;;5029733;28;20500;-71
2021/05/24 08:11:44;;;;;;;0.73;0.73;;;15.00;69.40;;;;;;5012746;28;20057;-70
2021/05/24 08:14:15;;;;;;;0.95;0.95;;;15.10;69.20;;;;;;5000397;28;20072;-71
2021/05/24 08:16:44;;;;;;;1.27;0.80;;;15.10;68.50;;;;;;4998197;28;20277;-71
2021/05/24 08:19:11;;;;;;;2.55;0.90;;;15.20;68.30;;;;;;5030453;28;20033;-70
2021/05/24 08:21:44;;;;;;;0.70;0.70;;;15.20;68.20;;;;;;5010331;28;20071;-71
2021/05/24 08:24:10;;;;;;;1.83;0.90;;;15.10;68.20;;;;;;5027240;28;20112;-71
2021/05/24 08:26:35;;;;;;;1.90;0.70;;;14.90;68.20;;;;;;5002051;28;20374;-71
2021/05/24 08:29:01;;;;;;;1.17;0.80;;;14.90;68.60;;;;;;4994763;28;20036;-71
2021/05/24 08:31:26;;;;;;;2.30;1.10;;;14.90;68.70;;;;;;5020552;28;20040;-71
2021/05/24 08:33:52;;;;;;;0.70;0.68;;;14.90;68.50;;;;;;5029568;28;20067;-70
2021/05/24 08:36:18;;;;;;;1.58;0.90;;;15.00;68.50;;;;;;4998615;28;20121;-71
2021/05/24 08:38:43;;;;;;;4.35;0.85;;;15.20;68.40;;;;;;5004239;28;20033;-71
2021/05/24 08:41:10;;;;;;;1.40;0.60;;;15.30;68.20;;;;;;5019970;28;20057;-70
2021/05/24 08:43:37;;;;;;;2.35;0.70;;;15.20;67.80;;;;;;5008088;28;20473;-71
2021/05/24 08:46:03;;;;;;;1.27;0.70;;;15.20;67.60;;;;;;5020888;28;20037;-70
2021/05/24 08:48:29;;;;;;;1.27;0.70;;;15.00;67.70;;;;;;5007439;28;20030;-70
2021/05/24 08:50:56;;;;;;;0.82;0.70;;;15.00;68.10;;;;;;5028685;28;20030;-71
2021/05/24 08:53:21;;;;;;;3.92;0.60;;;15.00;68.20;;;;;;5010103;28;20025;-71
2021/05/24 08:55:48;;;;;;;1.15;0.65;;;15.00;68.20;;;;;;5020528;28;20371;-71
2021/05/24 08:58:14;;;;;;;1.58;0.60;;;15.00;68.20;;;;;;5015532;28;20025;-71
2021/05/24 09:00:40;;;;;;;1.83;0.70;;;15.10;68.00;;;;;;5027699;28;20518;-73
2021/05/24 09:03:16;;;;;;;1.42;0.80;;;15.10;67.70;;;;;;5022841;28;20029;-71
2021/05/24 09:05:42;;;;;;;1.50;0.60;;;15.20;67.60;;;;;;5020591;28;20037;-69
2021/05/24 09:08:07;;;;;;;0.85;0.70;;;15.20;67.60;;;;;;5007640;28;20039;-69
2021/05/24 09:10:35;;;;;;;0.75;0.73;;;15.30;67.50;;;;;;5024691;28;20437;-70
2021/05/24 09:13:18;;;;;;;1.67;0.70;;;15.40;67.40;;;;;;5030411;28;20061;-70
2021/05/24 09:15:46;;;;;;;1.60;1.05;;;15.70;67.10;;;;;;5013109;28;20109;-73
2021/05/24 09:18:13;;;;;;;1.48;1.05;;;16.00;67.00;;;;;;5018754;28;20025;-70
2021/05/24 09:20:43;;;;;;;1.92;0.70;;;16.30;66.50;;;;;;5003585;28;20037;-70
2021/05/24 09:23:20;;;;;;;2.13;0.50;;;16.50;66.10;;;;;;5020322;28;20034;-71
2021/05/24 09:25:58;;;;;;;0.90;0.77;;;17.00;64.50;;;;;;5007221;28;20029;-70
2021/05/24 09:28:46;;;;;;;0.82;0.35;;;17.50;63.20;;;;;;5029204;28;20048;-70
2021/05/24 09:31:16;;;;;;;0.50;0.50;;;18.00;62.40;;;;;;5026524;28;20025;-70
2021/05/24 09:33:46;;;;;;;0.43;0.40;;;18.30;62.40;;;;;;5015584;28;20570;-70
2021/05/24 09:36:13;;;;;;;1.27;0.45;;;18.50;62.00;;;;;;5000983;28;20365;-70
2021/05/24 09:38:50;;;;;;;1.05;0.82;;;18.70;61.80;;;;;;5030985;28;20021;-71
2021/05/24 09:41:19;;;;;;;1.70;0.52;;;18.70;61.50;;;;;;5017310;28;20033;-69
2021/05/24 09:43:49;;;;;;;0.70;0.60;;;18.90;61.60;;;;;;5014035;28;20037;-69
2021/05/24 09:46:28;;;;;;;0.47;0.47;;;19.00;60.70;;;;;;5000060;28;20109;-69
2021/05/24 09:49:03;;;;;;;3.45;0.65;;;19.10;60.00;;;;;;5022906;28;20025;-72
2021/05/24 09:51:34;;;;;;;1.33;0.65;;;18.90;59.50;;;;;;5015421;28;20029;-69
2021/05/24 09:54:01;;;;;;;0.68;0.55;;;18.70;60.10;;;;;;5030629;28;20036;-69
2021/05/24 09:56:29;;;;;;;2.47;0.70;;;18.70;60.50;;;;;;5030210;28;20104;-69
2021/05/24 09:59:06;;;;;;;0.50;0.45;;;18.60;60.40;;;;;;5027731;28;20159;-68
2021/05/24 10:01:37;;;;;;;0.95;0.43;;;18.60;59.70;;;;;;5025057;28;20026;-67
2021/05/24 10:04:04;;;;;;;0.50;0.50;;;18.50;59.40;;;;;;5012550;28;20021;-68
2021/05/24 10:06:29;;;;;;;0.50;0.50;;;18.30;59.30;;;;;;5035343;23;20052;-72
2021/05/24 10:08:55;;;;;;;0.60;0.60;;;18.20;59.70;;;;;;5017978;28;20109;-72
2021/05/24 10:11:25;;;;;;;1.85;0.60;;;18.10;60.20;;;;;;5025198;28;20013;-72
2021/05/24 10:13:50;;;;;;;0.65;0.40;;;18.10;59.70;;;;;;5030463;28;20048;-72
2021/05/24 10:16:17;;;;;;;2.78;0.50;;;18.00;59.80;;;;;;5031971;28;20104;-72
2021/05/24 10:18:43;;;;;;;0.40;0.40;;;18.00;59.90;;;;;;5024431;28;20072;-70
2021/05/24 10:21:09;;;;;;;0.50;0.50;;;18.10;59.90;;;;;;5032823;28;20033;-71
2021/05/24 10:23:36;;;;;;;0.32;0.32;;;18.20;59.90;;;;;;5011126;28;20033;-72
2021/05/24 10:26:04;;;;;;;0.63;0.47;;;18.30;59.30;;;;;;5023133;28;20030;-73
2021/05/24 10:28:31;;;;;;;1.10;0.70;;;18.40;59.50;;;;;;5030228;28;20468;-73
2021/05/24 10:30:58;;;;;;;0.40;0.40;;;18.50;58.80;;;;;;5027305;28;20018;-71
2021/05/24 10:33:41;;;;;;;0.75;0.43;;;18.60;58.70;;;;;;5002852;28;20026;-71
2021/05/24 10:36:22;;;;;;;0.75;0.30;;;18.70;58.40;;;;;;5027032;28;20105;-70
2021/05/24 10:39:03;;;;;;;3.40;0.68;;;18.70;58.20;;;;;;5029098;28;20405;-71
2021/05/24 10:41:51;;;;;;;0.32;0.32;;;18.70;58.30;;;;;;5015365;28;20026;-71
2021/05/24 10:44:22;;;;;;;1.33;0.60;;;18.70;58.20;;;;;;5015688;28;20033;-72
2021/05/24 10:46:49;;;;;;;2.58;0.60;;;18.70;58.10;;;;;;5032484;28;20132;-71
2021/05/24 10:49:19;;;;;;;0.50;0.50;;;18.70;58.10;;;;;;5032923;28;20079;-73
2021/05/24 10:51:45;;;;;;;0.40;0.40;;;18.70;58.10;;;;;;5032874;28;20500;-71
2021/05/24 10:54:11;;;;;;;0.50;0.50;;;18.70;58.10;;;;;;5032024;28;20029;-74
2021/05/24 10:56:43;;;;;;;0.50;0.40;;;18.80;57.50;;;;;;5032806;28;20029;-72
2021/05/24 10:59:39;;;;;;;2.90;0.47;;;18.70;57.40;;;;;;5032863;28;20029;-73
2021/05/24 11:02:35;;;;;;;0.70;0.50;;;18.80;57.60;;;;;;5032676;28;20026;-71
2021/05/24 11:05:05;;;;;;;0.70;0.60;;;18.90;57.70;;;;;;5010379;28;20516;-72
2021/05/24 11:07:36;;;;;;;0.70;0.30;;;18.90;57.90;;;;;;5031570;28;20026;-71
2021/05/24 11:10:13;;;;;;;0.52;0.50;;;18.90;57.70;;;;;;5032670;28;20473;-71
2021/05/24 11:12:41;;;;;;;0.40;0.40;;;18.80;57.00;;;;;;5032545;28;20027;-72
2021/05/24 11:15:06;;;;;;;1.02;0.50;;;18.80;57.20;;;;;;5031590;28;20026;-71
2021/05/24 11:18:00;;;;;;;0.38;0.32;;;18.80;57.40;;;;;;5032299;28;20025;-71
2021/05/24 11:20:38;;;;;;;0.80;0.52;;;18.80;56.90;;;;;;5026950;28;20031;-72
2021/05/24 11:23:47;;;;;;;0.82;0.50;;;18.70;56.80;;;;;;5032245;28;20045;-71
2021/05/24 11:26:12;;;;;;;0.93;0.40;;;18.70;56.60;;;;;;5031674;28;20087;-73
2021/05/24 11:28:44;;;;;;;0.55;0.40;;;18.60;56.70;;;;;;5018879;28;20034;-75
2021/05/24 11:31:17;;;;;;;0.65;0.50;;;18.50;56.90;;;;;;5021104;28;20018;-71
2021/05/24 11:33:42;;;;;;;;;;;18.50;56.80;;;;;;5027287;28;20034;-71
2021/05/24 11:36:09;;;;;;;0.88;0.40;;;18.50;57.40;;;;;;5029513;28;19970;-72
2021/05/24 11:38:35;;;;;;;0.68;0.30;;;18.40;57.00;;;;;;5031679;28;20544;-71
2021/05/24 11:41:07;;;;;;;1.27;1.17;;;18.40;56.80;;;;;;5012272;28;20124;-70
2021/05/24 11:43:33;;;;;;;3.10;2.50;;;18.40;56.50;;;;;;5012488;28;20029;-71
2021/05/24 11:46:02;;;;;;;0.77;0.77;;;18.50;56.80;;;;;;5020470;28;20569;-71
2021/05/24 11:48:55;;;;;;;0.52;0.20;;;18.50;56.50;;;;;;5031747;28;20017;-71
2021/05/24 11:51:34;;;;;;;1.95;0.30;;;18.60;55.30;;;;;;5027465;28;20464;-71
2021/05/24 11:54:08;;;;;;;0.50;0.30;;;18.70;54.70;;;;;;5031040;28;20026;-71
2021/05/24 11:56:45;;;;;;;0.45;0.30;;;18.70;54.50;;;;;;5031859;28;20017;-70
2021/05/24 11:59:14;;;;;;;0.45;0.30;;;18.70;54.60;;;;;;5014103;28;20036;-70
2021/05/24 12:01:42;;;;;;;0.40;0.40;;;18.70;54.70;;;;;;5031529;28;20481;-71
2021/05/24 12:04:11;;;;;;;0.68;0.22;;;18.80;54.50;;;;;;5026633;28;20032;-70
2021/05/24 12:06:43;;;;;;;0.55;0.30;;;18.80;54.10;;;;;;5019649;28;20099;-75
2021/05/24 12:09:10;;;;;;;0.20;0.20;;;18.90;53.50;;;;;;5023931;28;20556;-71
2021/05/24 12:11:51;;;;;;;1.23;0.70;;;19.00;53.40;;;;;;5031555;28;20393;-71
2021/05/24 12:14:17;;;;;;;0.57;0.40;;;19.10;53.30;;;;;;5030462;28;20049;-75
2021/05/24 12:16:42;;;;;;;0.73;0.30;;;19.20;52.90;;;;;;5030945;28;20057;-70
2021/05/24 12:19:08;;;;;;;0.50;0.50;;;19.20;52.30;;;;;;5019024;28;20097;-71
2021/05/24 12:21:41;;;;;;;0.90;0.50;;;19.30;52.30;;;;;;5026429;28;20144;-72
2021/05/24 12:24:09;;;;;;;0.82;0.20;;;19.40;51.70;;;;;;5030106;28;20025;-72
2021/05/24 12:26:37;;;;;;;0.40;0.40;;;19.40;51.00;;;;;;5031063;28;20052;-72
2021/05/24 12:29:05;;;;;;;0.68;0.30;;;19.30;50.80;;;;;;5030819;28;20029;-72
2021/05/24 12:31:31;;;;;;;0.43;0.22;;;19.40;50.50;;;;;;5030680;28;20025;-72
2021/05/24 12:33:58;;;;;;;0.35;0.35;;;19.40;50.80;;;;;;5023073;28;20406;-72
2021/05/24 12:36:33;;;;;;;4.00;0.40;;;19.40;50.40;;;;;;5017926;28;20029;-73
2021/05/24 12:39:03;;;;;;;0.40;0.30;;;19.40;50.40;;;;;;5030063;28;20030;-72
2021/05/24 12:41:31;;;;;;;0.70;0.30;;;19.30;50.90;;;;;;5013128;28;20026;-72
2021/05/24 12:43:59;;;;;;;0.65;0.38;;;19.20;50.90;;;;;;5012179;28;20075;-72
2021/05/24 12:46:25;;;;;;;0.82;0.30;;;19.20;50.80;;;;;;5012939;28;20072;-72
2021/05/24 12:48:52;;;;;;;0.73;0.47;;;19.20;50.40;;;;;;5030962;28;20030;-72
2021/05/24 12:51:24;;;;;;;0.75;0.32;;;19.20;50.40;;;;;;5030793;28;20049;-72
2021/05/24 12:54:07;;;;;;;0.57;0.55;;;19.10;49.90;;;;;;5030420;28;20030;-72
2021/05/24 12:56:45;;;;;;;0.10;0.10;;;19.10;50.10;;;;;;5030835;28;20394;-73